Time;durP1;ratioP1;P1;durP2;ratioP2;P2;SDS_P1;SDS_P2;PMS_P1;PMS_P2;Temp;Humidity;BMP_temperature;BMP_pressure;BME280_temperature;BME280_humidity;BME280_pressure;Samples;Min_cycle;Max_cycle;Signal;HPM_P1;HPM_P2
2022/08/31 00:04:06;;;;;;;2.95;0.80;;;16.40;67.80;;;;;;5071075;28;20046;-80
2022/08/31 00:06:33;;;;;;;1.65;0.70;;;16.40;67.90;;;;;;4995842;28;20046;-80
2022/08/31 00:09:00;;;;;;;3.63;1.05;;;16.40;67.90;;;;;;4995813;28;20050;-81
2022/08/31 00:11:28;;;;;;;1.73;1.38;;;16.40;68.10;;;;;;5012220;28;20057;-80
2022/08/31 00:14:00;;;;;;;2.63;0.80;;;16.30;68.20;;;;;;4995591;28;20538;-81
2022/08/31 00:16:27;;;;;;;1.30;0.73;;;16.30;68.20;;;;;;4995540;28;20067;-79
2022/08/31 00:18:53;;;;;;;2.78;1.00;;;16.30;68.30;;;;;;5011734;28;20046;-80
2022/08/31 00:21:22;;;;;;;1.58;0.90;;;16.20;68.40;;;;;;4995590;28;20098;-80
2022/08/31 00:23:48;;;;;;;2.70;0.93;;;16.20;68.50;;;;;;5011772;28;20102;-80
2022/08/31 00:26:15;;;;;;;1.70;0.75;;;16.10;68.60;;;;;;5012016;28;20034;-79
2022/08/31 00:28:41;;;;;;;2.55;1.67;;;16.10;68.90;;;;;;5011739;28;20038;-80
2022/08/31 00:31:07;;;;;;;0.80;0.65;;;16.00;68.90;;;;;;4995460;28;20135;-80
2022/08/31 00:33:35;;;;;;;2.35;0.73;;;16.00;68.90;;;;;;5011452;28;20107;-80
2022/08/31 00:36:05;;;;;;;2.35;0.73;;;16.10;68.90;;;;;;4995876;28;20413;-79
2022/08/31 00:38:31;;;;;;;2.63;0.90;;;16.00;68.90;;;;;;5012164;28;20042;-81
2022/08/31 00:40:57;;;;;;;1.77;0.70;;;16.00;69.00;;;;;;4995089;28;20041;-81
2022/08/31 00:43:38;;;;;;;2.70;0.88;;;16.00;69.10;;;;;;5011728;28;20034;-80
2022/08/31 00:46:04;;;;;;;2.38;0.88;;;16.00;69.30;;;;;;5011533;28;20120;-80
2022/08/31 00:48:30;;;;;;;1.20;0.80;;;15.90;69.50;;;;;;5011633;28;20044;-80
2022/08/31 00:50:56;;;;;;;5.50;1.27;;;15.90;69.50;;;;;;4995354;28;20400;-80
2022/08/31 00:53:23;;;;;;;1.55;0.73;;;15.90;69.50;;;;;;5011277;28;20090;-80
2022/08/31 00:55:49;;;;;;;3.97;0.80;;;15.90;69.70;;;;;;4994927;28;20042;-81
2022/08/31 00:58:17;;;;;;;1.15;0.60;;;15.90;69.70;;;;;;5011310;28;20049;-81
2022/08/31 01:00:46;;;;;;;2.38;0.70;;;15.80;69.80;;;;;;4994913;28;20114;-81
2022/08/31 01:03:12;;;;;;;1.67;0.68;;;15.80;69.60;;;;;;5011175;28;20046;-81
2022/08/31 01:05:39;;;;;;;1.17;0.60;;;15.80;69.70;;;;;;5011346;28;20439;-81
2022/08/31 01:08:06;;;;;;;1.15;0.75;;;15.70;69.80;;;;;;4995033;28;20034;-80
2022/08/31 01:10:36;;;;;;;3.90;0.98;;;15.70;69.70;;;;;;5011022;28;20070;-81
2022/08/31 01:13:03;;;;;;;1.30;0.60;;;15.70;69.80;;;;;;5011252;28;20497;-81
2022/08/31 01:15:30;;;;;;;2.47;0.70;;;15.70;69.80;;;;;;5010922;28;20042;-80
2022/08/31 01:17:59;;;;;;;1.05;0.70;;;15.70;69.70;;;;;;5011319;28;20106;-80
2022/08/31 01:20:45;;;;;;;1.90;0.80;;;15.60;69.80;;;;;;5010809;28;20110;-80
2022/08/31 01:23:34;;;;;;;2.15;0.90;;;15.50;69.80;;;;;;4994637;28;20129;-79
2022/08/31 01:26:02;;;;;;;1.65;0.80;;;15.50;70.10;;;;;;5010841;28;20087;-81
2022/08/31 01:28:28;;;;;;;2.28;0.95;;;15.40;70.10;;;;;;5011050;28;20071;-81
2022/08/31 01:31:09;;;;;;;2.03;0.88;;;15.40;70.20;;;;;;4994788;28;20037;-79
2022/08/31 01:33:37;;;;;;;1.15;0.70;;;15.40;70.20;;;;;;5010800;28;20393;-81
2022/08/31 01:36:04;;;;;;;1.33;0.85;;;15.40;70.20;;;;;;5010642;28;20046;-79
2022/08/31 01:38:31;;;;;;;3.08;0.60;;;15.30;70.30;;;;;;4994672;28;20069;-79
2022/08/31 01:41:03;;;;;;;2.08;0.50;;;15.30;70.30;;;;;;5010540;28;20117;-80
2022/08/31 01:43:32;;;;;;;4.85;0.93;;;15.20;70.50;;;;;;5010569;28;20042;-81
2022/08/31 01:46:03;;;;;;;3.83;0.75;;;15.10;70.50;;;;;;4994226;28;20509;-81
2022/08/31 01:48:29;;;;;;;3.53;0.80;;;15.10;70.50;;;;;;5010583;28;20073;-80
2022/08/31 01:50:55;;;;;;;1.17;0.70;;;15.00;70.50;;;;;;4994167;28;20102;-80
2022/08/31 01:53:21;;;;;;;1.98;0.60;;;15.00;70.50;;;;;;4977963;28;20128;-80
2022/08/31 01:55:47;;;;;;;1.33;0.85;;;15.00;70.60;;;;;;5010363;28;20049;-80
2022/08/31 01:58:13;;;;;;;1.13;0.70;;;15.00;70.50;;;;;;5010654;28;20053;-80
2022/08/31 02:00:39;;;;;;;1.70;1.00;;;15.00;70.60;;;;;;5010286;28;20042;-80
2022/08/31 02:03:06;;;;;;;4.90;0.80;;;15.00;70.70;;;;;;4993962;28;20048;-81
2022/08/31 02:05:36;;;;;;;1.40;0.88;;;14.90;70.80;;;;;;5010207;28;20052;-80
2022/08/31 02:08:04;;;;;;;3.97;0.82;;;14.80;71.00;;;;;;4994216;28;20042;-80
2022/08/31 02:10:30;;;;;;;1.48;0.82;;;14.80;71.00;;;;;;5010086;28;20045;-81
2022/08/31 02:12:56;;;;;;;0.68;0.60;;;14.70;71.10;;;;;;4994054;28;20046;-80
2022/08/31 02:15:22;;;;;;;1.30;0.65;;;14.70;71.30;;;;;;5010030;28;20042;-80
2022/08/31 02:17:48;;;;;;;1.42;0.60;;;14.70;71.20;;;;;;4993840;28;20095;-79
2022/08/31 02:20:15;;;;;;;2.60;0.88;;;14.60;71.20;;;;;;5009362;28;20038;-79
2022/08/31 02:22:40;;;;;;;3.00;0.60;;;14.60;71.30;;;;;;5010010;28;20034;-79
2022/08/31 02:25:08;;;;;;;0.98;0.40;;;14.50;71.30;;;;;;4993830;28;20099;-80
2022/08/31 02:27:35;;;;;;;2.65;0.80;;;14.50;71.50;;;;;;5010214;28;20041;-81
2022/08/31 02:30:03;;;;;;;2.13;0.93;;;14.50;71.50;;;;;;4993934;28;20054;-80
2022/08/31 02:32:29;;;;;;;1.30;0.60;;;14.50;71.50;;;;;;5009840;28;20075;-80
2022/08/31 02:34:55;;;;;;;1.48;0.73;;;14.50;71.60;;;;;;5009712;28;20391;-80
2022/08/31 02:37:20;;;;;;;1.15;0.80;;;14.40;71.80;;;;;;5009801;28;20504;-81
2022/08/31 02:39:46;;;;;;;1.88;0.80;;;14.40;71.80;;;;;;5009660;28;20114;-79
2022/08/31 02:42:12;;;;;;;0.73;0.40;;;14.40;71.90;;;;;;5009809;28;20041;-80
2022/08/31 02:44:37;;;;;;;1.30;0.52;;;14.40;71.80;;;;;;4993388;28;20053;-81
2022/08/31 02:47:03;;;;;;;1.45;0.60;;;14.40;71.80;;;;;;4993353;28;20079;-81
2022/08/31 02:49:31;;;;;;;2.03;0.70;;;14.30;71.90;;;;;;5009587;28;20150;-79
2022/08/31 02:51:57;;;;;;;2.30;1.00;;;14.40;71.90;;;;;;5009604;28;20042;-81
2022/08/31 02:54:23;;;;;;;2.10;0.70;;;14.30;71.90;;;;;;4993144;28;20490;-80
2022/08/31 02:56:49;;;;;;;1.45;0.73;;;14.30;72.00;;;;;;5009692;28;20053;-80
2022/08/31 02:59:15;;;;;;;0.70;0.60;;;14.20;72.20;;;;;;4993104;28;20512;-79
2022/08/31 03:01:40;;;;;;;1.70;0.60;;;14.20;72.30;;;;;;4993422;28;20427;-81
2022/08/31 03:04:06;;;;;;;2.42;0.80;;;14.20;72.30;;;;;;4993405;28;20086;-81
2022/08/31 03:06:32;;;;;;;0.82;0.50;;;14.10;72.30;;;;;;5009314;28;20038;-81
2022/08/31 03:08:59;;;;;;;1.98;0.80;;;14.10;72.50;;;;;;5009204;28;20038;-80
2022/08/31 03:11:25;;;;;;;1.30;0.80;;;14.10;72.60;;;;;;5009268;28;20042;-80
2022/08/31 03:13:51;;;;;;;0.75;0.50;;;14.10;72.60;;;;;;5009588;28;20068;-80
2022/08/31 03:16:17;;;;;;;1.58;0.60;;;14.10;72.50;;;;;;5009213;28;20553;-80
2022/08/31 03:18:43;;;;;;;5.20;0.90;;;14.00;72.60;;;;;;5009139;28;20121;-81
2022/08/31 03:21:08;;;;;;;1.00;0.60;;;14.00;72.70;;;;;;5009070;28;20042;-80
2022/08/31 03:23:34;;;;;;;2.83;0.70;;;14.00;72.70;;;;;;5009084;28;20042;-81
2022/08/31 03:26:01;;;;;;;1.00;0.90;;;13.90;72.90;;;;;;5009497;28;20037;-81
2022/08/31 03:28:27;;;;;;;3.05;0.80;;;13.90;72.90;;;;;;5009326;28;20034;-80
2022/08/31 03:30:53;;;;;;;5.05;1.13;;;13.90;72.90;;;;;;4992758;28;20038;-81
2022/08/31 03:33:18;;;;;;;1.27;0.65;;;13.80;73.00;;;;;;4995420;28;20044;-80
2022/08/31 03:35:44;;;;;;;1.48;0.80;;;13.80;73.10;;;;;;4996168;28;20077;-81
2022/08/31 03:38:11;;;;;;;1.35;0.75;;;13.70;73.10;;;;;;5012505;28;20127;-80
2022/08/31 03:40:39;;;;;;;2.05;1.00;;;13.70;73.10;;;;;;5012377;28;20052;-81
2022/08/31 03:43:10;;;;;;;1.55;0.80;;;13.70;73.30;;;;;;4996492;28;20137;-81
2022/08/31 03:45:41;;;;;;;1.00;0.73;;;13.70;73.30;;;;;;4996086;28;20041;-79
2022/08/31 03:48:08;;;;;;;1.63;0.90;;;13.60;73.30;;;;;;4996126;28;20067;-80
2022/08/31 03:50:34;;;;;;;2.22;0.80;;;13.60;73.20;;;;;;4995986;28;20044;-80
2022/08/31 03:53:04;;;;;;;1.45;0.80;;;13.70;73.40;;;;;;4995919;28;20042;-80
2022/08/31 03:55:32;;;;;;;0.90;0.60;;;13.60;73.50;;;;;;5012457;28;20081;-80
2022/08/31 03:57:58;;;;;;;1.63;0.98;;;13.60;73.50;;;;;;4995970;28;20122;-80
2022/08/31 04:00:24;;;;;;;1.77;0.90;;;13.60;73.50;;;;;;4995917;28;20038;-81
2022/08/31 04:02:50;;;;;;;2.83;0.65;;;13.60;73.50;;;;;;4995861;28;20512;-80
2022/08/31 04:05:16;;;;;;;2.05;1.15;;;13.50;73.60;;;;;;5011955;28;20045;-80
2022/08/31 04:07:43;;;;;;;1.65;0.90;;;13.50;73.70;;;;;;4995778;28;20071;-81
2022/08/31 04:10:11;;;;;;;2.55;1.30;;;13.50;73.80;;;;;;5012039;28;20050;-80
2022/08/31 04:12:37;;;;;;;1.70;0.98;;;13.50;73.80;;;;;;5011949;28;20034;-80
2022/08/31 04:15:03;;;;;;;2.15;0.95;;;13.50;73.90;;;;;;4995667;28;20099;-80
2022/08/31 04:17:29;;;;;;;1.27;0.80;;;13.50;74.00;;;;;;4995949;28;20090;-81
2022/08/31 04:19:55;;;;;;;2.28;0.98;;;13.50;73.90;;;;;;4995494;28;20493;-81
2022/08/31 04:22:20;;;;;;;2.00;1.02;;;13.50;74.10;;;;;;4979628;28;20034;-80
2022/08/31 04:24:46;;;;;;;2.28;0.80;;;13.50;74.20;;;;;;4995653;28;20088;-81
2022/08/31 04:27:12;;;;;;;4.90;1.20;;;13.50;74.20;;;;;;5011860;28;20045;-79
2022/08/31 04:29:38;;;;;;;3.22;0.90;;;13.40;74.30;;;;;;5011842;28;20045;-81
2022/08/31 04:32:04;;;;;;;1.83;0.90;;;13.40;74.40;;;;;;5012175;28;20049;-79
2022/08/31 04:34:30;;;;;;;1.73;0.93;;;13.40;74.50;;;;;;5011450;28;20065;-82
2022/08/31 04:36:55;;;;;;;1.75;1.00;;;13.40;74.70;;;;;;4995168;28;20074;-82
2022/08/31 04:39:22;;;;;;;2.88;0.77;;;13.40;74.70;;;;;;4995272;28;20042;-81
2022/08/31 04:41:48;;;;;;;3.30;1.00;;;13.50;74.80;;;;;;5011362;28;20047;-81
2022/08/31 04:44:14;;;;;;;2.50;1.00;;;13.50;74.80;;;;;;4994343;28;20044;-82
2022/08/31 04:46:40;;;;;;;3.60;1.65;;;13.50;74.90;;;;;;4994925;28;20498;-81
2022/08/31 04:49:08;;;;;;;2.42;1.05;;;13.50;75.00;;;;;;4995128;28;20030;-80
2022/08/31 04:51:34;;;;;;;2.75;1.15;;;13.40;75.10;;;;;;5011677;28;20060;-80
2022/08/31 04:54:02;;;;;;;3.65;1.45;;;13.40;75.00;;;;;;5011588;28;20038;-81
2022/08/31 04:56:32;;;;;;;3.67;1.10;;;13.40;75.20;;;;;;5011273;28;20038;-82
2022/08/31 04:59:03;;;;;;;2.92;1.08;;;13.40;75.20;;;;;;5011023;28;20045;-78
2022/08/31 05:01:35;;;;;;;3.72;1.10;;;13.30;75.20;;;;;;4999408;28;20125;-79
2022/08/31 05:04:01;;;;;;;4.70;1.30;;;13.30;75.40;;;;;;5024730;28;20046;-79
2022/08/31 05:06:30;;;;;;;3.10;1.05;;;13.30;75.40;;;;;;5024297;28;20093;-82
2022/08/31 05:09:10;;;;;;;2.63;1.13;;;13.30;75.60;;;;;;5007931;28;20044;-80
2022/08/31 05:11:36;;;;;;;1.60;1.10;;;13.30;75.80;;;;;;5007962;28;20042;-79
2022/08/31 05:14:04;;;;;;;3.63;1.23;;;13.20;75.90;;;;;;5024826;28;20065;-79
2022/08/31 05:16:32;;;;;;;1.50;1.10;;;13.30;76.20;;;;;;5024419;28;20372;-79
2022/08/31 05:18:59;;;;;;;2.50;1.38;;;13.30;76.30;;;;;;5024171;28;20402;-79
2022/08/31 05:21:30;;;;;;;2.92;1.35;;;13.30;76.40;;;;;;5007936;28;20045;-81
2022/08/31 05:23:59;;;;;;;6.03;1.55;;;13.40;76.70;;;;;;5007957;28;20047;-80
2022/08/31 05:26:35;;;;;;;1.90;1.48;;;13.40;76.60;;;;;;5023931;28;20042;-80
2022/08/31 05:29:04;;;;;;;2.15;1.20;;;13.50;76.90;;;;;;5024107;28;20042;-79
2022/08/31 05:31:31;;;;;;;2.33;1.30;;;13.50;76.80;;;;;;5007618;28;20501;-79
2022/08/31 05:33:59;;;;;;;4.85;1.38;;;13.60;77.20;;;;;;4974975;28;20133;-80
2022/08/31 05:36:25;;;;;;;1.45;0.93;;;13.70;77.50;;;;;;5007385;28;20049;-79
2022/08/31 05:38:52;;;;;;;2.10;0.82;;;13.70;77.50;;;;;;5024245;28;20042;-79
2022/08/31 05:41:19;;;;;;;2.83;1.30;;;13.80;77.30;;;;;;5007536;28;20386;-79
2022/08/31 05:43:45;;;;;;;1.17;0.90;;;13.90;77.80;;;;;;5023619;28;20039;-81
2022/08/31 05:46:12;;;;;;;1.33;1.20;;;13.90;77.80;;;;;;5007144;28;20034;-81
2022/08/31 05:48:38;;;;;;;2.47;1.20;;;14.00;77.50;;;;;;5024055;28;20386;-80
2022/08/31 05:51:06;;;;;;;2.88;1.30;;;14.00;77.60;;;;;;4990992;28;20042;-80
2022/08/31 05:53:33;;;;;;;3.40;1.65;;;14.10;77.90;;;;;;5023587;28;20046;-79
2022/08/31 05:56:09;;;;;;;1.77;1.00;;;14.10;77.80;;;;;;5022682;28;20049;-78
2022/08/31 05:58:37;;;;;;;4.20;1.52;;;14.20;78.00;;;;;;5007084;28;20554;-80
2022/08/31 06:01:10;;;;;;;2.17;1.38;;;14.20;77.60;;;;;;5006992;28;20084;-80
2022/08/31 06:03:36;;;;;;;2.58;1.20;;;14.30;77.70;;;;;;5023696;28;20389;-82
2022/08/31 06:06:02;;;;;;;2.05;1.08;;;14.30;77.50;;;;;;4990412;28;20040;-79
2022/08/31 06:08:27;;;;;;;1.42;1.27;;;14.50;77.40;;;;;;5023742;28;20088;-79
2022/08/31 06:10:56;;;;;;;2.30;1.95;;;14.50;77.80;;;;;;5007114;28;20038;-77
2022/08/31 06:13:25;;;;;;;3.53;1.60;;;14.60;78.40;;;;;;5023362;28;20064;-78
2022/08/31 06:15:52;;;;;;;4.13;1.65;;;14.70;78.40;;;;;;5023245;28;20103;-78
2022/08/31 06:18:19;;;;;;;3.10;1.48;;;14.80;78.00;;;;;;5006583;28;20057;-77
2022/08/31 06:20:46;;;;;;;2.92;1.17;;;14.90;78.00;;;;;;5023185;28;20143;-78
2022/08/31 06:23:12;;;;;;;3.95;1.45;;;15.00;77.90;;;;;;5023495;28;20049;-79
2022/08/31 06:25:38;;;;;;;3.05;1.35;;;15.00;78.50;;;;;;5023290;28;20437;-78
2022/08/31 06:28:06;;;;;;;1.70;1.05;;;15.10;78.60;;;;;;5023457;28;20038;-80
2022/08/31 06:30:40;;;;;;;1.42;0.93;;;15.30;78.90;;;;;;5023334;28;20038;-78
2022/08/31 06:33:06;;;;;;;3.08;1.10;;;15.30;78.50;;;;;;5006731;28;20482;-78
2022/08/31 06:35:32;;;;;;;1.55;0.90;;;15.40;78.30;;;;;;5006455;28;20077;-78
2022/08/31 06:37:58;;;;;;;2.33;0.90;;;15.50;78.50;;;;;;5022999;28;20046;-79
2022/08/31 06:40:25;;;;;;;3.25;1.13;;;15.60;78.00;;;;;;5006483;28;20043;-78
2022/08/31 06:42:51;;;;;;;2.58;0.90;;;15.70;77.50;;;;;;5023005;28;20070;-78
2022/08/31 06:45:17;;;;;;;2.47;0.73;;;15.80;77.30;;;;;;5006264;28;20034;-79
2022/08/31 06:47:43;;;;;;;5.53;1.73;;;15.90;77.10;;;;;;5022741;28;20123;-76
2022/08/31 06:50:09;;;;;;;1.38;0.77;;;16.00;76.90;;;;;;5006655;28;20077;-76
2022/08/31 06:52:35;;;;;;;2.88;1.20;;;16.00;76.70;;;;;;5023101;28;20137;-76
2022/08/31 06:55:00;;;;;;;1.23;0.63;;;16.10;76.20;;;;;;4989946;28;20176;-77
2022/08/31 06:57:26;;;;;;;2.88;0.70;;;16.30;75.70;;;;;;5023047;28;20091;-75
2022/08/31 06:59:52;;;;;;;2.88;0.98;;;16.40;75.30;;;;;;5022434;28;20085;-75
2022/08/31 07:02:18;;;;;;;4.38;1.00;;;16.40;75.30;;;;;;4990223;28;20397;-75
2022/08/31 07:04:44;;;;;;;1.75;0.93;;;16.50;75.30;;;;;;4990027;28;20046;-77
2022/08/31 07:07:11;;;;;;;2.60;1.00;;;16.60;74.70;;;;;;5005825;28;20042;-77
2022/08/31 07:09:38;;;;;;;1.75;0.80;;;16.70;74.70;;;;;;4989851;28;20053;-76
2022/08/31 07:12:05;;;;;;;2.00;1.30;;;16.70;74.20;;;;;;4989780;28;20494;-76
2022/08/31 07:14:31;;;;;;;2.63;1.10;;;16.80;74.40;;;;;;5022449;28;20050;-76
2022/08/31 07:16:58;;;;;;;5.28;1.30;;;16.90;74.00;;;;;;5006202;28;20038;-77
2022/08/31 07:19:25;;;;;;;2.55;1.00;;;17.00;74.10;;;;;;5028222;28;20085;-76
2022/08/31 07:21:57;;;;;;;3.83;1.20;;;17.10;73.50;;;;;;5008856;28;20042;-76
2022/08/31 07:24:29;;;;;;;2.22;0.90;;;17.10;73.40;;;;;;4992897;28;20045;-77
2022/08/31 07:27:17;;;;;;;2.70;0.90;;;17.30;73.50;;;;;;5009118;28;20074;-76
2022/08/31 07:29:43;;;;;;;3.38;1.10;;;17.40;73.10;;;;;;5009047;28;20042;-77
2022/08/31 07:32:11;;;;;;;3.13;0.90;;;17.40;72.50;;;;;;4993129;28;20044;-77
2022/08/31 07:34:37;;;;;;;3.17;1.05;;;17.50;72.10;;;;;;5008935;28;20054;-77
2022/08/31 07:42:37;;;;;;;2.95;1.02;;;17.70;71.70;;;;;;4995458;28;20068;-76
2022/08/31 07:45:06;;;;;;;5.63;1.13;;;17.80;71.30;;;;;;5008796;28;20045;-77
2022/08/31 07:47:32;;;;;;;2.13;0.90;;;17.90;71.40;;;;;;5008891;28;20036;-77
2022/08/31 07:49:59;;;;;;;3.15;1.10;;;18.00;71.40;;;;;;4992547;28;20129;-76
2022/08/31 07:52:32;;;;;;;2.15;1.00;;;18.10;71.30;;;;;;5009065;28;20378;-76
2022/08/31 07:55:05;;;;;;;3.28;1.42;;;18.20;71.10;;;;;;5008758;28;20048;-78
2022/08/31 07:57:35;;;;;;;3.10;1.30;;;18.30;70.60;;;;;;5008857;28;20052;-77
2022/08/31 08:00:07;;;;;;;2.92;0.85;;;18.40;70.60;;;;;;5008969;28;20077;-76
2022/08/31 08:02:37;;;;;;;2.08;0.82;;;18.50;70.40;;;;;;5008659;28;20049;-77
2022/08/31 08:05:15;;;;;;;2.10;0.77;;;18.60;69.50;;;;;;5008412;28;20556;-77
2022/08/31 08:07:40;;;;;;;6.72;1.05;;;18.70;68.50;;;;;;5008563;28;20045;-77
2022/08/31 08:10:12;;;;;;;2.42;0.90;;;18.80;67.60;;;;;;4992267;28;20042;-77
2022/08/31 08:12:42;;;;;;;0.88;0.50;;;18.90;67.10;;;;;;5008578;28;20046;-77
2022/08/31 08:15:09;;;;;;;1.50;1.05;;;18.90;66.60;;;;;;4976545;28;20067;-77
2022/08/31 08:17:35;;;;;;;2.67;0.70;;;19.00;65.60;;;;;;5008437;28;20045;-76
2022/08/31 08:20:02;;;;;;;3.97;0.80;;;19.10;65.50;;;;;;5010697;28;20046;-76
2022/08/31 08:22:27;;;;;;;4.03;0.95;;;19.20;64.40;;;;;;5011855;28;20030;-77
2022/08/31 08:24:54;;;;;;;1.75;0.80;;;19.30;64.10;;;;;;5011760;28;20095;-77
2022/08/31 08:27:19;;;;;;;1.48;0.80;;;19.30;63.40;;;;;;5011750;28;20042;-78
2022/08/31 08:29:45;;;;;;;3.95;1.10;;;19.40;60.90;;;;;;5011947;28;20095;-76
2022/08/31 08:32:11;;;;;;;1.13;0.90;;;19.40;61.80;;;;;;5011650;28;20459;-76
2022/08/31 08:34:42;;;;;;;3.85;1.00;;;19.50;61.70;;;;;;5011472;28;20057;-77
2022/08/31 08:37:09;;;;;;;2.35;0.85;;;19.60;60.50;;;;;;4995317;28;20042;-78
2022/08/31 08:39:36;;;;;;;2.47;0.70;;;19.70;60.90;;;;;;5011913;28;20050;-76
2022/08/31 08:42:03;;;;;;;2.38;0.77;;;19.80;60.20;;;;;;5011738;28;20041;-77
2022/08/31 08:44:32;;;;;;;3.45;0.90;;;19.90;60.60;;;;;;4995340;28;20034;-77
2022/08/31 08:47:05;;;;;;;1.33;0.90;;;20.00;59.60;;;;;;5011384;28;20042;-78
2022/08/31 08:49:39;;;;;;;1.60;1.00;;;20.10;59.00;;;;;;5011431;28;20121;-77
2022/08/31 08:52:29;;;;;;;2.25;0.60;;;20.20;59.10;;;;;;5011471;28;20061;-77
2022/08/31 08:54:59;;;;;;;2.58;0.93;;;20.20;57.20;;;;;;5011160;28;20086;-77
2022/08/31 08:57:33;;;;;;;4.97;0.90;;;20.40;58.90;;;;;;5011323;28;20056;-77
2022/08/31 09:00:06;;;;;;;2.22;0.80;;;20.40;58.00;;;;;;5011225;28;20092;-76
2022/08/31 09:02:57;;;;;;;1.20;0.90;;;20.50;58.60;;;;;;5011315;28;20077;-78
2022/08/31 09:05:41;;;;;;;0.90;0.68;;;20.70;57.80;;;;;;5011110;28;20085;-77
2022/08/31 09:08:31;;;;;;;2.00;0.63;;;20.80;57.30;;;;;;5011256;28;20142;-77
2022/08/31 09:11:06;;;;;;;4.68;1.02;;;20.80;57.00;;;;;;4994819;28;20052;-77
2022/08/31 09:13:39;;;;;;;1.38;0.60;;;20.90;58.10;;;;;;5011374;28;20115;-78
2022/08/31 09:16:16;;;;;;;2.95;0.88;;;21.00;57.30;;;;;;4994775;28;20041;-77
2022/08/31 09:19:07;;;;;;;2.70;0.93;;;21.10;56.80;;;;;;5010930;28;20520;-75
2022/08/31 09:21:51;;;;;;;4.07;0.90;;;21.20;55.80;;;;;;5010847;28;20389;-76
2022/08/31 09:24:21;;;;;;;2.40;1.13;;;21.20;56.50;;;;;;5011508;28;20121;-76
2022/08/31 09:27:18;;;;;;;1.75;0.63;;;21.30;56.90;;;;;;5011133;28;20099;-77
2022/08/31 09:29:59;;;;;;;1.17;0.90;;;21.40;55.60;;;;;;5011018;28;20046;-76
2022/08/31 09:32:27;;;;;;;2.67;0.80;;;21.40;54.70;;;;;;5010732;28;20050;-78
2022/08/31 09:35:00;;;;;;;2.70;0.82;;;21.30;55.80;;;;;;4994170;28;20057;-79
2022/08/31 09:37:36;;;;;;;1.48;0.80;;;21.20;55.30;;;;;;5010691;28;20046;-77
2022/08/31 09:40:22;;;;;;;2.58;0.80;;;21.20;56.00;;;;;;4994307;28;20049;-77
2022/08/31 09:43:22;;;;;;;1.58;0.80;;;21.40;55.20;;;;;;5010607;28;20037;-78
2022/08/31 09:46:01;;;;;;;2.20;0.80;;;21.50;56.10;;;;;;5010550;28;20125;-77
2022/08/31 09:48:50;;;;;;;2.10;1.00;;;21.60;56.20;;;;;;5010622;28;20115;-76
2022/08/31 09:51:27;;;;;;;2.40;0.90;;;21.70;54.60;;;;;;4994101;28;20535;-77
2022/08/31 09:57:00;;;;;;;1.98;0.93;;;21.80;54.40;;;;;;5011559;28;20046;-77
2022/08/31 09:59:42;;;;;;;2.28;1.10;;;21.60;55.10;;;;;;5010270;28;20474;-78
2022/08/31 10:02:08;;;;;;;1.60;0.80;;;21.70;54.70;;;;;;4994093;28;20037;-78
2022/08/31 10:04:46;;;;;;;1.40;0.80;;;21.90;54.40;;;;;;4994025;28;20045;-78
2022/08/31 10:07:29;;;;;;;2.45;0.70;;;22.10;52.70;;;;;;5010500;28;20150;-78
2022/08/31 10:10:16;;;;;;;1.63;0.65;;;22.40;53.80;;;;;;5010495;28;20048;-76
2022/08/31 10:12:56;;;;;;;0.63;0.60;;;22.60;52.40;;;;;;5010199;28;20046;-78
2022/08/31 10:15:29;;;;;;;0.98;0.80;;;22.80;49.60;;;;;;5010063;28;20045;-77
2022/08/31 10:18:16;;;;;;;1.42;0.70;;;23.00;51.60;;;;;;5010309;28;20414;-77
2022/08/31 10:21:11;;;;;;;0.90;0.77;;;23.20;51.20;;;;;;5009978;28;20052;-78
2022/08/31 10:23:53;;;;;;;2.85;0.75;;;23.40;50.80;;;;;;5011009;28;20473;-78
2022/08/31 10:26:34;;;;;;;0.88;0.60;;;23.60;50.20;;;;;;5010180;28;20056;-78
2022/08/31 10:29:17;;;;;;;2.40;1.00;;;23.90;49.80;;;;;;5009911;28;20502;-77
2022/08/31 10:31:48;;;;;;;1.52;0.63;;;24.00;48.90;;;;;;4993498;28;20052;-78
2022/08/31 10:35:07;;;;;;;1.15;0.65;;;24.20;49.20;;;;;;5009840;28;20061;-77
2022/08/31 10:37:17;;;;;;;2.38;0.63;;;24.30;47.70;;;;;;5013316;28;20045;-78
2022/08/31 10:39:50;;;;;;;0.88;0.60;;;24.20;46.60;;;;;;5009705;28;20557;-78
2022/08/31 10:42:24;;;;;;;1.08;0.60;;;24.10;47.70;;;;;;4992837;28;20079;-79
2022/08/31 10:44:56;;;;;;;0.88;0.55;;;24.10;47.10;;;;;;5009598;28;20046;-77
2022/08/31 10:47:29;;;;;;;1.67;0.68;;;24.20;47.30;;;;;;5009958;28;20046;-78
2022/08/31 10:49:57;;;;;;;0.70;0.50;;;24.20;47.10;;;;;;5009635;28;20048;-78
2022/08/31 10:52:40;;;;;;;2.15;0.75;;;24.30;47.20;;;;;;5009965;28;20097;-77
2022/08/31 10:55:27;;;;;;;0.93;0.63;;;24.40;45.30;;;;;;4993449;28;20437;-78
2022/08/31 10:58:25;;;;;;;1.13;0.65;;;24.50;45.90;;;;;;5009438;28;20046;-77
2022/08/31 11:01:12;;;;;;;2.92;0.75;;;24.60;46.20;;;;;;5020286;28;20054;-78
2022/08/31 11:03:38;;;;;;;1.27;0.80;;;24.70;44.10;;;;;;5009670;28;20057;-77
2022/08/31 11:06:33;;;;;;;2.92;0.63;;;24.80;45.60;;;;;;5009294;28;20049;-78
2022/08/31 11:09:32;;;;;;;1.40;0.73;;;25.10;45.60;;;;;;5009610;28;20041;-78
2022/08/31 11:12:10;;;;;;;3.47;0.82;;;25.10;43.50;;;;;;5009322;28;20053;-77
2022/08/31 11:14:49;;;;;;;2.35;0.80;;;25.30;43.60;;;;;;5009257;28;20041;-78
2022/08/31 11:17:41;;;;;;;0.90;0.45;;;25.40;45.10;;;;;;5009528;28;20037;-77
2022/08/31 11:20:38;;;;;;;1.75;0.68;;;25.50;44.30;;;;;;5009194;28;20046;-77
2022/08/31 11:23:05;;;;;;;1.13;0.63;;;25.60;44.20;;;;;;5000071;28;20049;-77
2022/08/31 11:26:00;;;;;;;1.15;0.77;;;25.70;43.90;;;;;;4992981;28;20077;-78
2022/08/31 11:28:47;;;;;;;1.20;0.60;;;25.70;42.90;;;;;;5009154;28;20554;-77
2022/08/31 11:31:23;;;;;;;1.48;0.73;;;25.80;43.10;;;;;;5009049;28;20081;-78
2022/08/31 11:34:12;;;;;;;1.30;0.65;;;25.90;42.60;;;;;;4992707;28;20054;-78
2022/08/31 11:36:50;;;;;;;2.08;0.80;;;25.90;43.30;;;;;;5008962;28;20049;-78
2022/08/31 11:39:35;;;;;;;1.38;0.88;;;26.00;42.90;;;;;;5009102;28;20068;-76
2022/08/31 11:42:11;;;;;;;0.93;0.52;;;26.20;43.00;;;;;;4992865;28;20038;-76
2022/08/31 11:44:40;;;;;;;1.27;0.50;;;26.30;43.00;;;;;;5009244;28;20416;-77
2022/08/31 11:47:28;;;;;;;4.25;1.05;;;26.40;42.00;;;;;;4992804;28;20389;-77
2022/08/31 11:50:04;;;;;;;1.13;0.80;;;26.50;41.50;;;;;;5009202;28;20045;-77
2022/08/31 11:52:37;;;;;;;2.08;0.70;;;26.70;41.80;;;;;;4992648;28;20045;-77
2022/08/31 11:55:25;;;;;;;0.97;0.57;;;26.80;41.60;;;;;;5011185;28;20045;-77
2022/08/31 11:58:08;;;;;;;1.38;0.60;;;26.80;38.80;;;;;;5012311;28;20289;-79
2022/08/31 12:00:45;;;;;;;2.42;0.80;;;26.70;40.40;;;;;;5012098;28;20046;-78
2022/08/31 12:03:30;;;;;;;0.90;0.70;;;26.80;40.90;;;;;;5012136;28;20042;-77
2022/08/31 12:05:56;;;;;;;2.08;0.70;;;27.00;42.70;;;;;;5012074;28;20073;-79
2022/08/31 12:08:45;;;;;;;2.10;0.90;;;27.10;41.70;;;;;;5012327;28;20050;-78
2022/08/31 12:12:08;;;;;;;3.15;0.73;;;27.10;41.00;;;;;;5012043;28;20057;-77
2022/08/31 12:14:57;;;;;;;1.92;0.80;;;27.10;41.40;;;;;;4999454;28;20053;-77
2022/08/31 12:17:33;;;;;;;3.92;0.70;;;27.00;38.10;;;;;;5012199;28;20214;-77
2022/08/31 12:20:19;;;;;;;1.25;0.57;;;26.90;39.70;;;;;;5011909;28;20521;-78
2022/08/31 12:23:38;;;;;;;0.98;0.60;;;27.00;40.00;;;;;;5011888;28;20034;-77
2022/08/31 12:26:38;;;;;;;2.58;0.70;;;27.10;38.80;;;;;;5013347;28;20079;-76
2022/08/31 12:29:29;;;;;;;2.80;0.85;;;27.20;40.40;;;;;;4995428;28;20485;-77
2022/08/31 12:32:36;;;;;;;1.58;0.68;;;27.30;39.90;;;;;;5011690;28;20038;-77
2022/08/31 12:35:14;;;;;;;1.95;0.82;;;27.40;40.90;;;;;;5011443;28;20050;-78
2022/08/31 12:37:40;;;;;;;2.75;0.88;;;27.40;41.30;;;;;;5011547;28;20498;-77
2022/08/31 12:40:15;;;;;;;2.28;0.80;;;27.20;42.00;;;;;;4995149;28;20486;-77
2022/08/31 12:43:18;;;;;;;1.35;0.77;;;27.10;41.80;;;;;;4995655;28;20368;-77
2022/08/31 12:46:08;;;;;;;1.55;0.60;;;27.20;42.90;;;;;;5011497;28;20030;-78
2022/08/31 12:48:49;;;;;;;3.67;0.90;;;26.90;42.30;;;;;;5011447;28;20509;-78
2022/08/31 12:51:32;;;;;;;1.95;0.80;;;26.90;41.80;;;;;;5011498;28;20049;-76
2022/08/31 12:54:32;;;;;;;3.58;1.42;;;27.10;42.40;;;;;;5011482;28;20042;-77
2022/08/31 12:57:18;;;;;;;2.53;0.80;;;26.90;42.50;;;;;;5011243;28;20049;-77
2022/08/31 13:00:09;;;;;;;2.67;0.90;;;27.00;43.50;;;;;;5011310;28;20042;-77
2022/08/31 13:02:41;;;;;;;1.55;0.73;;;27.00;44.00;;;;;;4995021;28;20038;-78
2022/08/31 13:05:20;;;;;;;2.95;1.35;;;27.20;43.20;;;;;;4994726;28;20367;-78
2022/08/31 13:07:46;;;;;;;2.30;0.70;;;27.40;43.20;;;;;;5011231;28;20046;-79
2022/08/31 13:10:36;;;;;;;3.20;0.70;;;27.40;42.30;;;;;;4978815;28;20044;-77
2022/08/31 13:13:04;;;;;;;2.42;1.13;;;27.30;42.40;;;;;;5011063;28;20061;-77
2022/08/31 13:15:39;;;;;;;3.90;1.25;;;27.30;42.70;;;;;;5011209;28;20045;-78
2022/08/31 13:18:21;;;;;;;1.75;1.00;;;27.30;42.60;;;;;;5011331;28;20394;-76
2022/08/31 13:20:51;;;;;;;1.30;0.80;;;27.40;42.30;;;;;;5010982;28;20046;-79
2022/08/31 13:23:33;;;;;;;1.65;0.90;;;27.60;42.50;;;;;;4995382;28;20477;-78
2022/08/31 13:26:23;;;;;;;4.93;0.85;;;27.60;41.10;;;;;;5010781;28;20073;-78